sensor_id;sensor_type;location;lat;lon;timestamp;temperature;humidity
2721;DHT22;1368;49.484;11.112;2022-10-28T00:00:50;14.90;99.90
2721;DHT22;1368;49.484;11.112;2022-10-28T00:03:17;15.20;99.90
2721;DHT22;1368;49.484;11.112;2022-10-28T00:05:44;15.40;99.90
2721;DHT22;1368;49.484;11.112;2022-10-28T00:08:10;15.20;99.90
2721;DHT22;1368;49.484;11.112;2022-10-28T00:10:35;14.90;99.90
2721;DHT22;1368;49.484;11.112;2022-10-28T00:13:01;14.80;99.90
2721;DHT22;1368;49.484;11.112;2022-10-28T00:15:27;14.80;99.90
2721;DHT22;1368;49.484;11.112;2022-10-28T00:17:52;14.80;99.90
2721;DHT22;1368;49.484;11.112;2022-10-28T00:20:18;15.10;99.90
2721;DHT22;1368;49.484;11.112;2022-10-28T00:22:43;15.30;99.90
2721;DHT22;1368;49.484;11.112;2022-10-28T00:25:09;15.10;99.90
2721;DHT22;1368;49.484;11.112;2022-10-28T00:27:35;14.80;99.90
2721;DHT22;1368;49.484;11.112;2022-10-28T00:30:00;14.80;99.90
2721;DHT22;1368;49.484;11.112;2022-10-28T00:32:29;14.60;99.90
2721;DHT22;1368;49.484;11.112;2022-10-28T00:34:55;14.80;99.90
2721;DHT22;1368;49.484;11.112;2022-10-28T00:37:21;14.40;99.90
2721;DHT22;1368;49.484;11.112;2022-10-28T00:39:47;14.40;99.90
2721;DHT22;1368;49.484;11.112;2022-10-28T00:42:17;14.50;99.90
2721;DHT22;1368;49.484;11.112;2022-10-28T00:49:55;14.60;99.90
2721;DHT22;1368;49.484;11.112;2022-10-28T00:52:25;14.50;99.90
2721;DHT22;1368;49.484;11.112;2022-10-28T00:54:51;14.40;99.90
2721;DHT22;1368;49.484;11.112;2022-10-28T00:57:20;14.50;99.90
2721;DHT22;1368;49.484;11.112;2022-10-28T00:59:50;15.00;99.90
2721;DHT22;1368;49.484;11.112;2022-10-28T01:02:17;15.10;99.90
2721;DHT22;1368;49.484;11.112;2022-10-28T01:04:43;14.80;99.90
2721;DHT22;1368;49.484;11.112;2022-10-28T01:07:10;14.90;99.90
2721;DHT22;1368;49.484;11.112;2022-10-28T01:09:37;15.00;99.90
2721;DHT22;1368;49.484;11.112;2022-10-28T01:23:03;15.00;99.90
2721;DHT22;1368;49.484;11.112;2022-10-28T01:25:57;14.80;99.90
2721;DHT22;1368;49.484;11.112;2022-10-28T01:33:40;14.80;99.90
2721;DHT22;1368;49.484;11.112;2022-10-28T01:36:14;14.80;99.90
2721;DHT22;1368;49.484;11.112;2022-10-28T01:41:36;14.90;99.90
2721;DHT22;1368;49.484;11.112;2022-10-28T01:44:11;14.80;99.90
2721;DHT22;1368;49.484;11.112;2022-10-28T01:46:45;14.60;99.90
2721;DHT22;1368;49.484;11.112;2022-10-28T01:49:22;14.40;99.90
2721;DHT22;1368;49.484;11.112;2022-10-28T01:51:53;14.40;99.90
2721;DHT22;1368;49.484;11.112;2022-10-28T01:54:24;14.90;99.90
2721;DHT22;1368;49.484;11.112;2022-10-28T01:56:52;14.50;99.90
2721;DHT22;1368;49.484;11.112;2022-10-28T01:59:26;14.60;99.90
2721;DHT22;1368;49.484;11.112;2022-10-28T02:01:53;14.20;99.90
2721;DHT22;1368;49.484;11.112;2022-10-28T02:04:19;14.10;99.90
2721;DHT22;1368;49.484;11.112;2022-10-28T02:06:48;13.80;99.90
2721;DHT22;1368;49.484;11.112;2022-10-28T02:09:31;13.90;99.90
2721;DHT22;1368;49.484;11.112;2022-10-28T02:20:07;13.70;99.90
2721;DHT22;1368;49.484;11.112;2022-10-28T02:23:06;13.70;99.90
2721;DHT22;1368;49.484;11.112;2022-10-28T02:25:58;13.80;99.90
2721;DHT22;1368;49.484;11.112;2022-10-28T02:28:37;13.70;99.90
2721;DHT22;1368;49.484;11.112;2022-10-28T02:31:26;13.80;99.90
2721;DHT22;1368;49.484;11.112;2022-10-28T02:33:58;13.80;99.90
2721;DHT22;1368;49.484;11.112;2022-10-28T02:36:27;13.90;99.90
2721;DHT22;1368;49.484;11.112;2022-10-28T02:38:56;14.00;99.90
2721;DHT22;1368;49.484;11.112;2022-10-28T02:43:52;14.30;99.90
2721;DHT22;1368;49.484;11.112;2022-10-28T02:46:19;14.50;99.90
2721;DHT22;1368;49.484;11.112;2022-10-28T02:48:55;15.00;99.90
2721;DHT22;1368;49.484;11.112;2022-10-28T02:51:33;14.70;99.90
2721;DHT22;1368;49.484;11.112;2022-10-28T02:56:28;14.80;99.90
2721;DHT22;1368;49.484;11.112;2022-10-28T02:58:56;14.80;99.90
2721;DHT22;1368;49.484;11.112;2022-10-28T03:01:21;14.80;99.90
2721;DHT22;1368;49.484;11.112;2022-10-28T03:03:47;15.20;99.90
2721;DHT22;1368;49.484;11.112;2022-10-28T03:06:12;14.80;99.90
2721;DHT22;1368;49.484;11.112;2022-10-28T03:08:38;14.70;99.90
2721;DHT22;1368;49.484;11.112;2022-10-28T03:11:04;14.60;99.90
2721;DHT22;1368;49.484;11.112;2022-10-28T03:13:29;14.60;99.90
2721;DHT22;1368;49.484;11.112;2022-10-28T03:15:55;14.50;99.90
2721;DHT22;1368;49.484;11.112;2022-10-28T03:18:20;14.30;99.90
2721;DHT22;1368;49.484;11.112;2022-10-28T03:20:46;14.30;99.90
2721;DHT22;1368;49.484;11.112;2022-10-28T03:23:12;14.60;99.90
2721;DHT22;1368;49.484;11.112;2022-10-28T03:25:37;14.30;99.90
2721;DHT22;1368;49.484;11.112;2022-10-28T03:28:03;14.40;99.90
2721;DHT22;1368;49.484;11.112;2022-10-28T03:30:29;14.50;99.90
2721;DHT22;1368;49.484;11.112;2022-10-28T03:32:54;14.60;99.90
2721;DHT22;1368;49.484;11.112;2022-10-28T03:35:20;14.50;99.90
2721;DHT22;1368;49.484;11.112;2022-10-28T03:37:45;14.70;99.90
2721;DHT22;1368;49.484;11.112;2022-10-28T03:40:11;14.40;99.90
2721;DHT22;1368;49.484;11.112;2022-10-28T03:42:38;14.30;99.90
2721;DHT22;1368;49.484;11.112;2022-10-28T03:45:04;14.30;99.90
2721;DHT22;1368;49.484;11.112;2022-10-28T03:47:30;14.30;99.90
2721;DHT22;1368;49.484;11.112;2022-10-28T03:49:55;14.30;99.90
2721;DHT22;1368;49.484;11.112;2022-10-28T03:52:21;14.20;99.90
2721;DHT22;1368;49.484;11.112;2022-10-28T03:54:46;13.90;99.90
2721;DHT22;1368;49.484;11.112;2022-10-28T03:57:12;13.90;99.90
2721;DHT22;1368;49.484;11.112;2022-10-28T03:59:37;13.70;99.90
2721;DHT22;1368;49.484;11.112;2022-10-28T04:02:03;13.80;99.90
2721;DHT22;1368;49.484;11.112;2022-10-28T04:04:28;13.60;99.90
2721;DHT22;1368;49.484;11.112;2022-10-28T04:06:54;13.60;99.90
2721;DHT22;1368;49.484;11.112;2022-10-28T04:09:19;13.60;99.90
2721;DHT22;1368;49.484;11.112;2022-10-28T04:11:48;13.90;99.90
2721;DHT22;1368;49.484;11.112;2022-10-28T04:14:14;13.80;99.90
2721;DHT22;1368;49.484;11.112;2022-10-28T04:16:39;13.80;99.90
2721;DHT22;1368;49.484;11.112;2022-10-28T04:19:05;13.80;99.90
2721;DHT22;1368;49.484;11.112;2022-10-28T04:21:31;13.80;99.90
2721;DHT22;1368;49.484;11.112;2022-10-28T04:23:57;13.90;99.90
2721;DHT22;1368;49.484;11.112;2022-10-28T04:26:22;14.00;99.90
2721;DHT22;1368;49.484;11.112;2022-10-28T04:28:48;13.90;99.90
2721;DHT22;1368;49.484;11.112;2022-10-28T04:31:13;13.80;99.90
2721;DHT22;1368;49.484;11.112;2022-10-28T04:33:39;13.90;99.90
2721;DHT22;1368;49.484;11.112;2022-10-28T04:36:04;14.10;99.90
2721;DHT22;1368;49.484;11.112;2022-10-28T04:38:30;14.10;99.90
2721;DHT22;1368;49.484;11.112;2022-10-28T04:40:56;14.30;99.90
2721;DHT22;1368;49.484;11.112;2022-10-28T04:43:21;14.70;99.90
2721;DHT22;1368;49.484;11.112;2022-10-28T04:45:47;14.30;99.90
2721;DHT22;1368;49.484;11.112;2022-10-28T04:48:12;14.40;99.90
2721;DHT22;1368;49.484;11.112;2022-10-28T04:50:38;14.90;99.90
2721;DHT22;1368;49.484;11.112;2022-10-28T04:53:04;14.40;99.90
2721;DHT22;1368;49.484;11.112;2022-10-28T04:55:29;14.20;99.90
2721;DHT22;1368;49.484;11.112;2022-10-28T04:57:57;14.00;99.90
2721;DHT22;1368;49.484;11.112;2022-10-28T05:00:23;13.90;99.90
2721;DHT22;1368;49.484;11.112;2022-10-28T05:02:49;14.10;99.90
2721;DHT22;1368;49.484;11.112;2022-10-28T05:05:15;14.30;99.90
2721;DHT22;1368;49.484;11.112;2022-10-28T05:07:41;14.70;99.90
2721;DHT22;1368;49.484;11.112;2022-10-28T05:10:07;14.20;99.90
2721;DHT22;1368;49.484;11.112;2022-10-28T05:12:33;14.20;99.90
2721;DHT22;1368;49.484;11.112;2022-10-28T05:14:58;14.30;99.90
2721;DHT22;1368;49.484;11.112;2022-10-28T05:17:24;14.30;99.90
2721;DHT22;1368;49.484;11.112;2022-10-28T05:19:49;14.40;99.90
2721;DHT22;1368;49.484;11.112;2022-10-28T05:22:15;14.50;99.90
2721;DHT22;1368;49.484;11.112;2022-10-28T05:24:40;14.50;99.90
2721;DHT22;1368;49.484;11.112;2022-10-28T05:27:06;14.50;99.90
2721;DHT22;1368;49.484;11.112;2022-10-28T05:29:32;14.50;99.90
2721;DHT22;1368;49.484;11.112;2022-10-28T05:31:57;14.50;99.90
2721;DHT22;1368;49.484;11.112;2022-10-28T05:34:23;14.50;99.90
2721;DHT22;1368;49.484;11.112;2022-10-28T05:36:49;14.50;99.90
2721;DHT22;1368;49.484;11.112;2022-10-28T05:39:15;14.60;99.90
2721;DHT22;1368;49.484;11.112;2022-10-28T05:41:41;14.60;99.90
2721;DHT22;1368;49.484;11.112;2022-10-28T05:44:06;14.50;99.90
2721;DHT22;1368;49.484;11.112;2022-10-28T05:46:32;14.40;99.90
2721;DHT22;1368;49.484;11.112;2022-10-28T05:48:57;14.30;99.90
2721;DHT22;1368;49.484;11.112;2022-10-28T05:51:23;14.30;99.90
2721;DHT22;1368;49.484;11.112;2022-10-28T05:53:48;14.40;99.90
2721;DHT22;1368;49.484;11.112;2022-10-28T05:56:16;14.30;99.90
2721;DHT22;1368;49.484;11.112;2022-10-28T05:58:41;14.20;99.90
2721;DHT22;1368;49.484;11.112;2022-10-28T06:01:07;13.80;99.90
2721;DHT22;1368;49.484;11.112;2022-10-28T06:03:33;13.60;99.90
2721;DHT22;1368;49.484;11.112;2022-10-28T06:05:59;13.60;99.90
2721;DHT22;1368;49.484;11.112;2022-10-28T06:08:24;13.80;99.90
2721;DHT22;1368;49.484;11.112;2022-10-28T06:10:52;13.80;99.90
2721;DHT22;1368;49.484;11.112;2022-10-28T06:13:18;13.70;99.90
2721;DHT22;1368;49.484;11.112;2022-10-28T06:15:43;13.80;99.90
2721;DHT22;1368;49.484;11.112;2022-10-28T06:18:09;14.20;99.90
2721;DHT22;1368;49.484;11.112;2022-10-28T06:20:34;14.20;99.90
2721;DHT22;1368;49.484;11.112;2022-10-28T06:23:00;14.40;99.90
2721;DHT22;1368;49.484;11.112;2022-10-28T06:25:26;13.80;99.90
2721;DHT22;1368;49.484;11.112;2022-10-28T06:27:56;14.20;99.90
2721;DHT22;1368;49.484;11.112;2022-10-28T06:30:23;14.10;99.90
2721;DHT22;1368;49.484;11.112;2022-10-28T06:32:48;14.00;99.90
2721;DHT22;1368;49.484;11.112;2022-10-28T06:35:14;13.80;99.90
2721;DHT22;1368;49.484;11.112;2022-10-28T06:37:40;13.80;99.90
2721;DHT22;1368;49.484;11.112;2022-10-28T06:40:06;13.90;99.90
2721;DHT22;1368;49.484;11.112;2022-10-28T06:42:32;13.60;99.90
2721;DHT22;1368;49.484;11.112;2022-10-28T06:44:57;13.60;99.90
2721;DHT22;1368;49.484;11.112;2022-10-28T06:47:23;13.60;99.90
2721;DHT22;1368;49.484;11.112;2022-10-28T06:49:49;13.70;99.90
2721;DHT22;1368;49.484;11.112;2022-10-28T06:52:14;13.60;99.90
2721;DHT22;1368;49.484;11.112;2022-10-28T06:54:40;13.60;99.90
2721;DHT22;1368;49.484;11.112;2022-10-28T06:57:05;13.90;99.90
2721;DHT22;1368;49.484;11.112;2022-10-28T06:59:31;13.80;99.90
2721;DHT22;1368;49.484;11.112;2022-10-28T07:01:56;13.60;99.90
2721;DHT22;1368;49.484;11.112;2022-10-28T07:04:22;13.50;99.90
2721;DHT22;1368;49.484;11.112;2022-10-28T07:06:47;13.50;99.90
2721;DHT22;1368;49.484;11.112;2022-10-28T07:09:13;13.80;99.90
2721;DHT22;1368;49.484;11.112;2022-10-28T07:11:42;14.50;99.90
2721;DHT22;1368;49.484;11.112;2022-10-28T07:14:09;14.20;99.90
2721;DHT22;1368;49.484;11.112;2022-10-28T07:16:35;14.30;99.90
2721;DHT22;1368;49.484;11.112;2022-10-28T07:19:00;14.50;99.90
2721;DHT22;1368;49.484;11.112;2022-10-28T07:21:26;14.90;99.90
2721;DHT22;1368;49.484;11.112;2022-10-28T07:23:55;15.20;99.90
2721;DHT22;1368;49.484;11.112;2022-10-28T07:26:21;15.30;99.90
2721;DHT22;1368;49.484;11.112;2022-10-28T07:28:46;15.70;99.90
2721;DHT22;1368;49.484;11.112;2022-10-28T07:31:12;15.50;99.90
2721;DHT22;1368;49.484;11.112;2022-10-28T07:33:37;14.60;99.90
2721;DHT22;1368;49.484;11.112;2022-10-28T07:36:05;14.40;99.90
2721;DHT22;1368;49.484;11.112;2022-10-28T07:38:30;13.70;99.90
2721;DHT22;1368;49.484;11.112;2022-10-28T07:40:56;13.70;99.90
2721;DHT22;1368;49.484;11.112;2022-10-28T07:43:22;14.10;99.90
2721;DHT22;1368;49.484;11.112;2022-10-28T07:45:47;13.80;99.90
2721;DHT22;1368;49.484;11.112;2022-10-28T07:48:13;14.30;99.90
2721;DHT22;1368;49.484;11.112;2022-10-28T07:50:39;14.40;99.90
2721;DHT22;1368;49.484;11.112;2022-10-28T07:53:05;14.20;99.90
2721;DHT22;1368;49.484;11.112;2022-10-28T07:55:31;14.30;99.90
2721;DHT22;1368;49.484;11.112;2022-10-28T07:57:57;14.90;99.90
2721;DHT22;1368;49.484;11.112;2022-10-28T08:00:23;14.90;99.90
2721;DHT22;1368;49.484;11.112;2022-10-28T08:02:48;15.40;99.90
2721;DHT22;1368;49.484;11.112;2022-10-28T08:05:14;16.20;99.90
2721;DHT22;1368;49.484;11.112;2022-10-28T08:07:40;16.00;99.90
2721;DHT22;1368;49.484;11.112;2022-10-28T08:10:06;17.10;99.90
2721;DHT22;1368;49.484;11.112;2022-10-28T08:12:32;17.50;99.90
2721;DHT22;1368;49.484;11.112;2022-10-28T08:14:57;18.70;99.90
2721;DHT22;1368;49.484;11.112;2022-10-28T08:17:23;19.80;99.90
2721;DHT22;1368;49.484;11.112;2022-10-28T08:19:49;19.60;99.90
2721;DHT22;1368;49.484;11.112;2022-10-28T08:22:14;19.70;99.90
2721;DHT22;1368;49.484;11.112;2022-10-28T08:24:40;20.00;99.90
2721;DHT22;1368;49.484;11.112;2022-10-28T08:27:05;20.20;99.90
2721;DHT22;1368;49.484;11.112;2022-10-28T08:29:31;20.50;99.90
2721;DHT22;1368;49.484;11.112;2022-10-28T08:31:56;20.20;99.90
2721;DHT22;1368;49.484;11.112;2022-10-28T08:34:22;19.60;99.90
2721;DHT22;1368;49.484;11.112;2022-10-28T08:36:47;18.90;99.90
2721;DHT22;1368;49.484;11.112;2022-10-28T08:39:13;19.20;99.90
2721;DHT22;1368;49.484;11.112;2022-10-28T08:41:56;18.80;99.90
2721;DHT22;1368;49.484;11.112;2022-10-28T08:44:45;19.20;99.90
2721;DHT22;1368;49.484;11.112;2022-10-28T08:47:21;19.50;99.90
2721;DHT22;1368;49.484;11.112;2022-10-28T08:49:51;19.20;99.90
2721;DHT22;1368;49.484;11.112;2022-10-28T08:55:29;19.20;99.90
2721;DHT22;1368;49.484;11.112;2022-10-28T08:58:25;19.20;99.90
2721;DHT22;1368;49.484;11.112;2022-10-28T09:00:54;19.20;99.90
2721;DHT22;1368;49.484;11.112;2022-10-28T09:03:24;18.80;99.90
2721;DHT22;1368;49.484;11.112;2022-10-28T09:06:00;19.10;99.90
2721;DHT22;1368;49.484;11.112;2022-10-28T09:08:28;18.80;99.90
2721;DHT22;1368;49.484;11.112;2022-10-28T09:16:46;19.10;99.90
2721;DHT22;1368;49.484;11.112;2022-10-28T09:19:23;19.10;99.90
2721;DHT22;1368;49.484;11.112;2022-10-28T09:24:55;19.40;99.90
2721;DHT22;1368;49.484;11.112;2022-10-28T09:30:26;19.50;99.90
2721;DHT22;1368;49.484;11.112;2022-10-28T09:35:35;19.90;99.90
2721;DHT22;1368;49.484;11.112;2022-10-28T09:38:24;19.80;99.90
2721;DHT22;1368;49.484;11.112;2022-10-28T09:41:05;20.00;99.90
2721;DHT22;1368;49.484;11.112;2022-10-28T09:43:39;20.50;99.90
2721;DHT22;1368;49.484;11.112;2022-10-28T09:46:11;20.80;99.90
2721;DHT22;1368;49.484;11.112;2022-10-28T09:48:40;20.90;99.90
2721;DHT22;1368;49.484;11.112;2022-10-28T09:51:09;21.00;99.90
2721;DHT22;1368;49.484;11.112;2022-10-28T09:53:45;21.30;99.90
2721;DHT22;1368;49.484;11.112;2022-10-28T09:56:11;21.20;99.90
2721;DHT22;1368;49.484;11.112;2022-10-28T09:58:41;21.20;99.90
2721;DHT22;1368;49.484;11.112;2022-10-28T10:01:09;21.10;99.90
2721;DHT22;1368;49.484;11.112;2022-10-28T10:03:34;21.30;99.90
2721;DHT22;1368;49.484;11.112;2022-10-28T10:06:10;21.30;99.90
2721;DHT22;1368;49.484;11.112;2022-10-28T10:08:36;21.30;99.90
2721;DHT22;1368;49.484;11.112;2022-10-28T10:11:13;21.60;99.90
2721;DHT22;1368;49.484;11.112;2022-10-28T10:13:42;22.10;99.90
2721;DHT22;1368;49.484;11.112;2022-10-28T10:16:16;21.90;99.90
2721;DHT22;1368;49.484;11.112;2022-10-28T10:18:46;21.80;99.90
2721;DHT22;1368;49.484;11.112;2022-10-28T10:21:13;21.70;99.90
2721;DHT22;1368;49.484;11.112;2022-10-28T10:23:41;21.60;99.90
2721;DHT22;1368;49.484;11.112;2022-10-28T10:26:11;21.40;99.90
2721;DHT22;1368;49.484;11.112;2022-10-28T10:28:45;21.20;99.90
2721;DHT22;1368;49.484;11.112;2022-10-28T10:31:18;21.50;99.90
2721;DHT22;1368;49.484;11.112;2022-10-28T10:33:48;21.80;99.90
2721;DHT22;1368;49.484;11.112;2022-10-28T10:36:17;22.30;99.90
2721;DHT22;1368;49.484;11.112;2022-10-28T10:38:49;22.30;99.90
2721;DHT22;1368;49.484;11.112;2022-10-28T10:41:35;22.00;99.90
2721;DHT22;1368;49.484;11.112;2022-10-28T10:49:33;22.80;99.90
2721;DHT22;1368;49.484;11.112;2022-10-28T10:52:01;23.00;99.90
2721;DHT22;1368;49.484;11.112;2022-10-28T10:54:30;22.80;99.90
2721;DHT22;1368;49.484;11.112;2022-10-28T10:57:14;22.70;99.90
2721;DHT22;1368;49.484;11.112;2022-10-28T10:59:44;22.60;99.90
2721;DHT22;1368;49.484;11.112;2022-10-28T11:02:36;22.30;99.90
2721;DHT22;1368;49.484;11.112;2022-10-28T11:05:07;21.90;99.90
2721;DHT22;1368;49.484;11.112;2022-10-28T11:07:34;21.60;99.90
2721;DHT22;1368;49.484;11.112;2022-10-28T11:10:02;21.70;99.90
2721;DHT22;1368;49.484;11.112;2022-10-28T11:12:30;21.90;99.90
2721;DHT22;1368;49.484;11.112;2022-10-28T11:15:21;22.40;99.90
2721;DHT22;1368;49.484;11.112;2022-10-28T11:18:16;22.40;99.90
2721;DHT22;1368;49.484;11.112;2022-10-28T11:23:32;23.10;99.90
2721;DHT22;1368;49.484;11.112;2022-10-28T11:26:03;23.40;99.90
2721;DHT22;1368;49.484;11.112;2022-10-28T11:32:13;23.70;99.90
2721;DHT22;1368;49.484;11.112;2022-10-28T11:42:45;23.10;99.90
2721;DHT22;1368;49.484;11.112;2022-10-28T11:45:35;23.30;99.90
2721;DHT22;1368;49.484;11.112;2022-10-28T11:51:22;24.00;99.90
2721;DHT22;1368;49.484;11.112;2022-10-28T11:54:20;23.90;99.90
2721;DHT22;1368;49.484;11.112;2022-10-28T11:57:02;23.80;99.90
2721;DHT22;1368;49.484;11.112;2022-10-28T11:59:54;23.90;99.90
2721;DHT22;1368;49.484;11.112;2022-10-28T12:05:02;23.80;99.90
2721;DHT22;1368;49.484;11.112;2022-10-28T12:12:52;23.20;99.90
2721;DHT22;1368;49.484;11.112;2022-10-28T12:21:01;23.50;99.90
2721;DHT22;1368;49.484;11.112;2022-10-28T12:23:30;23.50;99.90
2721;DHT22;1368;49.484;11.112;2022-10-28T12:25:58;23.70;99.90
2721;DHT22;1368;49.484;11.112;2022-10-28T12:28:44;23.50;99.90
2721;DHT22;1368;49.484;11.112;2022-10-28T12:31:33;23.40;99.90
2721;DHT22;1368;49.484;11.112;2022-10-28T12:34:05;23.60;99.90
2721;DHT22;1368;49.484;11.112;2022-10-28T12:36:47;23.30;99.90
2721;DHT22;1368;49.484;11.112;2022-10-28T12:39:21;23.50;99.90
2721;DHT22;1368;49.484;11.112;2022-10-28T12:41:59;23.90;99.90
2721;DHT22;1368;49.484;11.112;2022-10-28T12:44:27;24.20;99.90
2721;DHT22;1368;49.484;11.112;2022-10-28T12:55:23;23.30;99.90
2721;DHT22;1368;49.484;11.112;2022-10-28T12:58:00;23.40;99.90
2721;DHT22;1368;49.484;11.112;2022-10-28T13:00:41;23.30;99.90
2721;DHT22;1368;49.484;11.112;2022-10-28T13:03:11;23.30;99.90
2721;DHT22;1368;49.484;11.112;2022-10-28T13:11:33;23.90;99.90
2721;DHT22;1368;49.484;11.112;2022-10-28T13:14:41;24.10;99.90
2721;DHT22;1368;49.484;11.112;2022-10-28T13:22:51;24.40;99.90
2721;DHT22;1368;49.484;11.112;2022-10-28T13:26:34;24.20;99.90
2721;DHT22;1368;49.484;11.112;2022-10-28T13:28:40;23.90;99.90
2721;DHT22;1368;49.484;11.112;2022-10-28T13:31:07;24.00;99.90
2721;DHT22;1368;49.484;11.112;2022-10-28T13:33:34;24.30;99.90
2721;DHT22;1368;49.484;11.112;2022-10-28T13:36:25;24.40;99.90
2721;DHT22;1368;49.484;11.112;2022-10-28T13:38:57;24.50;99.90
2721;DHT22;1368;49.484;11.112;2022-10-28T13:41:33;24.30;99.90
2721;DHT22;1368;49.484;11.112;2022-10-28T13:49:25;24.70;99.90
2721;DHT22;1368;49.484;11.112;2022-10-28T13:57:34;24.40;99.90
2721;DHT22;1368;49.484;11.112;2022-10-28T14:00:04;24.10;99.90
2721;DHT22;1368;49.484;11.112;2022-10-28T14:02:38;23.60;99.90
2721;DHT22;1368;49.484;11.112;2022-10-28T14:05:09;23.40;99.90
2721;DHT22;1368;49.484;11.112;2022-10-28T14:07:42;23.40;99.90
2721;DHT22;1368;49.484;11.112;2022-10-28T14:12:49;23.20;99.90
2721;DHT22;1368;49.484;11.112;2022-10-28T14:15:22;23.30;99.90
2721;DHT22;1368;49.484;11.112;2022-10-28T14:17:52;23.40;99.90
2721;DHT22;1368;49.484;11.112;2022-10-28T14:20:23;23.40;99.90
2721;DHT22;1368;49.484;11.112;2022-10-28T14:22:50;23.60;99.90
2721;DHT22;1368;49.484;11.112;2022-10-28T14:44:38;23.00;99.90
2721;DHT22;1368;49.484;11.112;2022-10-28T14:50:20;23.00;99.90
2721;DHT22;1368;49.484;11.112;2022-10-28T14:52:48;22.70;99.90
2721;DHT22;1368;49.484;11.112;2022-10-28T14:55:24;22.40;99.90
2721;DHT22;1368;49.484;11.112;2022-10-28T14:57:50;22.40;99.90
2721;DHT22;1368;49.484;11.112;2022-10-28T15:00:22;22.40;99.90
2721;DHT22;1368;49.484;11.112;2022-10-28T15:02:50;22.40;99.90
2721;DHT22;1368;49.484;11.112;2022-10-28T15:05:20;22.30;99.90
2721;DHT22;1368;49.484;11.112;2022-10-28T15:07:46;22.30;99.90
2721;DHT22;1368;49.484;11.112;2022-10-28T15:12:40;22.50;99.90
2721;DHT22;1368;49.484;11.112;2022-10-28T15:15:29;22.50;99.90
2721;DHT22;1368;49.484;11.112;2022-10-28T15:17:55;22.30;99.90
2721;DHT22;1368;49.484;11.112;2022-10-28T15:20:25;22.40;99.90
2721;DHT22;1368;49.484;11.112;2022-10-28T15:22:52;22.50;99.90
2721;DHT22;1368;49.484;11.112;2022-10-28T15:25:20;22.60;99.90
2721;DHT22;1368;49.484;11.112;2022-10-28T15:27:50;22.60;99.90
2721;DHT22;1368;49.484;11.112;2022-10-28T15:30:24;22.50;99.90
2721;DHT22;1368;49.484;11.112;2022-10-28T15:32:53;22.30;99.90
2721;DHT22;1368;49.484;11.112;2022-10-28T15:37:52;21.70;99.90
2721;DHT22;1368;49.484;11.112;2022-10-28T15:42:59;21.20;99.90
2721;DHT22;1368;49.484;11.112;2022-10-28T15:45:30;21.20;99.90
2721;DHT22;1368;49.484;11.112;2022-10-28T15:47:57;21.30;99.90
2721;DHT22;1368;49.484;11.112;2022-10-28T15:50:30;21.40;99.90
2721;DHT22;1368;49.484;11.112;2022-10-28T15:55:41;21.20;99.90
2721;DHT22;1368;49.484;11.112;2022-10-28T16:00:49;21.50;99.90
2721;DHT22;1368;49.484;11.112;2022-10-28T16:06:05;21.50;99.90
2721;DHT22;1368;49.484;11.112;2022-10-28T16:08:31;21.40;99.90
2721;DHT22;1368;49.484;11.112;2022-10-28T16:11:01;21.60;99.90
2721;DHT22;1368;49.484;11.112;2022-10-28T16:13:31;21.00;99.90
2721;DHT22;1368;49.484;11.112;2022-10-28T16:16:10;20.70;99.90
2721;DHT22;1368;49.484;11.112;2022-10-28T16:18:45;20.50;99.90
2721;DHT22;1368;49.484;11.112;2022-10-28T16:21:22;20.30;99.90
2721;DHT22;1368;49.484;11.112;2022-10-28T16:23:51;20.20;99.90
2721;DHT22;1368;49.484;11.112;2022-10-28T16:26:24;20.30;99.90
2721;DHT22;1368;49.484;11.112;2022-10-28T16:28:50;20.50;99.90
2721;DHT22;1368;49.484;11.112;2022-10-28T16:31:16;20.50;99.90
2721;DHT22;1368;49.484;11.112;2022-10-28T16:33:42;20.70;99.90
2721;DHT22;1368;49.484;11.112;2022-10-28T16:36:08;20.80;99.90
2721;DHT22;1368;49.484;11.112;2022-10-28T16:38:34;20.40;99.90
2721;DHT22;1368;49.484;11.112;2022-10-28T16:41:01;20.30;99.90
2721;DHT22;1368;49.484;11.112;2022-10-28T16:43:28;20.50;99.90
2721;DHT22;1368;49.484;11.112;2022-10-28T16:45:57;20.50;99.90
2721;DHT22;1368;49.484;11.112;2022-10-28T16:48:25;20.30;99.90
2721;DHT22;1368;49.484;11.112;2022-10-28T16:50:53;20.40;99.90
2721;DHT22;1368;49.484;11.112;2022-10-28T16:53:20;20.30;99.90
2721;DHT22;1368;49.484;11.112;2022-10-28T16:55:45;20.40;99.90
2721;DHT22;1368;49.484;11.112;2022-10-28T16:58:11;20.40;99.90
2721;DHT22;1368;49.484;11.112;2022-10-28T17:00:37;20.30;99.90
2721;DHT22;1368;49.484;11.112;2022-10-28T17:03:03;20.40;99.90
2721;DHT22;1368;49.484;11.112;2022-10-28T17:05:29;20.50;99.90
2721;DHT22;1368;49.484;11.112;2022-10-28T17:07:55;20.40;99.90
2721;DHT22;1368;49.484;11.112;2022-10-28T17:10:22;20.10;99.90
2721;DHT22;1368;49.484;11.112;2022-10-28T17:12:49;20.20;99.90
2721;DHT22;1368;49.484;11.112;2022-10-28T17:15:15;20.10;99.90
2721;DHT22;1368;49.484;11.112;2022-10-28T17:17:40;20.10;99.90
2721;DHT22;1368;49.484;11.112;2022-10-28T17:20:06;20.10;99.90
2721;DHT22;1368;49.484;11.112;2022-10-28T17:22:32;20.10;99.90
2721;DHT22;1368;49.484;11.112;2022-10-28T17:24:58;20.10;99.90
2721;DHT22;1368;49.484;11.112;2022-10-28T17:27:23;20.00;99.90
2721;DHT22;1368;49.484;11.112;2022-10-28T17:29:49;20.00;99.90
2721;DHT22;1368;49.484;11.112;2022-10-28T17:32:15;20.00;99.90
2721;DHT22;1368;49.484;11.112;2022-10-28T17:34:40;20.00;99.90
2721;DHT22;1368;49.484;11.112;2022-10-28T17:37:06;19.90;99.90
2721;DHT22;1368;49.484;11.112;2022-10-28T17:39:32;20.20;99.90
2721;DHT22;1368;49.484;11.112;2022-10-28T17:41:58;19.70;99.90
2721;DHT22;1368;49.484;11.112;2022-10-28T17:44:23;19.70;99.90
2721;DHT22;1368;49.484;11.112;2022-10-28T17:46:50;19.60;99.90
2721;DHT22;1368;49.484;11.112;2022-10-28T17:49:16;19.80;99.90
2721;DHT22;1368;49.484;11.112;2022-10-28T17:51:42;19.60;99.90
2721;DHT22;1368;49.484;11.112;2022-10-28T17:54:08;19.80;99.90
2721;DHT22;1368;49.484;11.112;2022-10-28T17:56:34;19.60;99.90
2721;DHT22;1368;49.484;11.112;2022-10-28T17:59:00;19.80;99.90
2721;DHT22;1368;49.484;11.112;2022-10-28T18:01:29;19.70;99.90
2721;DHT22;1368;49.484;11.112;2022-10-28T18:03:55;20.20;99.90
2721;DHT22;1368;49.484;11.112;2022-10-28T18:06:21;19.70;99.90
2721;DHT22;1368;49.484;11.112;2022-10-28T18:08:46;19.70;99.90
2721;DHT22;1368;49.484;11.112;2022-10-28T18:11:14;19.60;99.90
2721;DHT22;1368;49.484;11.112;2022-10-28T18:13:41;19.60;99.90
2721;DHT22;1368;49.484;11.112;2022-10-28T18:16:14;19.40;99.90
2721;DHT22;1368;49.484;11.112;2022-10-28T18:18:40;19.60;99.90
2721;DHT22;1368;49.484;11.112;2022-10-28T18:21:06;19.70;99.90
2721;DHT22;1368;49.484;11.112;2022-10-28T18:23:35;19.80;99.90
2721;DHT22;1368;49.484;11.112;2022-10-28T18:26:11;19.70;99.90
2721;DHT22;1368;49.484;11.112;2022-10-28T18:28:38;19.90;99.90
2721;DHT22;1368;49.484;11.112;2022-10-28T18:31:06;20.10;99.90
2721;DHT22;1368;49.484;11.112;2022-10-28T18:33:33;20.30;99.90
2721;DHT22;1368;49.484;11.112;2022-10-28T18:35:59;20.50;99.90
2721;DHT22;1368;49.484;11.112;2022-10-28T18:38:25;20.80;99.90
2721;DHT22;1368;49.484;11.112;2022-10-28T18:40:51;20.50;99.90